^^
Saratoga-Weather Station Historical Data
Daily Summary for January 5, 2021 Units:  English    Metric   Both
Daily Weekly Monthly Yearly Custom
  High: Low: Average:
Temperature: 81.3 °F 55.9 °F 67.6 °F
Dew Point: 62.2 °F 54 °F 57.6 °F
Humidity: 95% 44% 73%
Wind Speed: 6mph 0mph 0.7mph
Wind Gust: 10mph - -
Wind- - SSE
Pressure: 30.1 in 30 in -
Precipitation: 0 in    
Historical Graphs
 
 
Tabular Data for January 5, 2021
Time Temperature Dew Point Pressure Wind Wind Speed Wind Gust Humidity Rainfall Rate (Hourly) solar
00:02 60.4 °F 55.6 °F 30 in Calm     84% 0 in 0 W/m2
00:07 60.4 °F 55.9 °F 30 in Calm     85% 0 in 0 W/m2
00:12 60.3 °F 55.8 °F 30 in Calm     85% 0 in 0 W/m2
00:17 60.3 °F 55.8 °F 30 in Calm     85% 0 in 0 W/m2
00:22 60.3 °F 55.8 °F 30 in Calm     85% 0 in 0 W/m2
00:27 60.1 °F 55.6 °F 30 in Calm     85% 0 in 0 W/m2
00:32 60.1 °F 55.6 °F 30 in Calm     85% 0 in 0 W/m2
00:37 59.9 °F 55.8 °F 30 in Calm     86% 0 in 0 W/m2
00:42 59.7 °F 55.6 °F 30 in Calm     86% 0 in 0 W/m2
00:47 59.5 °F 55.4 °F 30 in Calm     86% 0 in 0 W/m2
00:52 59.5 °F 55.4 °F 30 in Calm     86% 0 in 0 W/m2
00:57 59.4 °F 55.2 °F 30 in Calm     86% 0 in 0 W/m2
01:02 59.4 °F 55.4 °F 30 in Calm     87% 0 in 0 W/m2
01:07 59.4 °F 55.4 °F 30 in Calm     87% 0 in 0 W/m2
01:12 59.2 °F 55.4 °F 30 in Calm     87% 0 in 0 W/m2
01:17 59 °F 55.2 °F 30 in Calm     87% 0 in 0 W/m2
01:22 58.8 °F 55.2 °F 30 in SSW 2 mph 2 mph 88% 0 in 0 W/m2
01:27 58.8 °F 55.2 °F 30 in Calm   2 mph 88% 0 in 0 W/m2
01:32 58.8 °F 55.2 °F 30 in SSW 0.9 mph 1 mph 88% 0 in 0 W/m2
01:37 59.2 °F 55.6 °F 30 in Calm     88% 0 in 0 W/m2
01:42 59.2 °F 55.6 °F 30 in SSW 2 mph 2 mph 88% 0 in 0 W/m2
01:47 59.5 °F 55.9 °F 30 in Calm     88% 0 in 0 W/m2
01:52 59.5 °F 55.6 °F 30 in Calm     87% 0 in 0 W/m2
01:57 59.7 °F 55.8 °F 30 in Calm   1 mph 87% 0 in 0 W/m2
02:02 59.7 °F 55.8 °F 30 in Calm   1 mph 87% 0 in 0 W/m2
02:07 59.7 °F 55.8 °F 30 in Calm     87% 0 in 0 W/m2
02:12 59.7 °F 55.8 °F 30 in WSW 0.9 mph 3 mph 87% 0 in 0 W/m2
02:17 60.1 °F 55.9 °F 30 in WSW 0.9 mph 1 mph 86% 0 in 0 W/m2
02:22 60.3 °F 56.1 °F 30 in Calm   2 mph 86% 0 in 0 W/m2
02:27 60.4 °F 55.9 °F 30 in SSW 2 mph 2 mph 85% 0 in 0 W/m2
02:32 60.4 °F 55.9 °F 30 in Calm   1 mph 85% 0 in 0 W/m2
02:37 60.6 °F 56.1 °F 30 in SSW 0.9 mph 2 mph 85% 0 in 0 W/m2
02:42 60.6 °F 56.1 °F 30 in SSW 0.9 mph 1 mph 85% 0 in 0 W/m2
02:47 60.6 °F 56.1 °F 30 in SSW 0.9 mph 2 mph 85% 0 in 0 W/m2
02:52 60.4 °F 55.9 °F 30 in Calm   1 mph 85% 0 in 0 W/m2
02:57 60.3 °F 56.1 °F 30 in Calm   1 mph 86% 0 in 0 W/m2
03:02 60.3 °F 56.1 °F 30 in Calm   2 mph 86% 0 in 0 W/m2
03:07 60.1 °F 55.9 °F 30 in Calm   1 mph 86% 0 in 0 W/m2
03:12 60.1 °F 55.9 °F 30 in Calm   2 mph 86% 0 in 0 W/m2
03:17 59.7 °F 55.6 °F 30 in Calm     86% 0 in 0 W/m2
03:22 59.5 °F 55.4 °F 30 in Calm     86% 0 in 0 W/m2
03:27 59.4 °F 55.4 °F 30 in Calm     87% 0 in 0 W/m2
03:32 59 °F 55.2 °F 30 in Calm     87% 0 in 0 W/m2
03:37 58.8 °F 55.2 °F 30 in Calm     88% 0 in 0 W/m2
03:42 58.6 °F 55 °F 30 in Calm     88% 0 in 0 W/m2
03:47 58.3 °F 54.7 °F 30 in Calm     88% 0 in 0 W/m2
03:52 58.1 °F 54.9 °F 30 in Calm     89% 0 in 0 W/m2
03:57 57.7 °F 54.5 °F 30 in Calm     89% 0 in 0 W/m2
04:02 57.7 °F 54.9 °F 30 in Calm   1 mph 90% 0 in 0 W/m2
04:07 57.7 °F 54.9 °F 30 in Calm     90% 0 in 0 W/m2
04:12 57.6 °F 54.7 °F 30 in Calm   1 mph 90% 0 in 0 W/m2
04:17 57.6 °F 54.7 °F 30 in Calm     90% 0 in 0 W/m2
04:22 57.4 °F 54.9 °F 30 in Calm     91% 0 in 0 W/m2
04:27 57.4 °F 54.9 °F 30 in Calm     91% 0 in 0 W/m2
04:32 57.4 °F 54.9 °F 30 in Calm     91% 0 in 0 W/m2
04:37 57.4 °F 54.9 °F 30 in Calm     91% 0 in 0 W/m2
04:42 57.4 °F 54.9 °F 30 in Calm     91% 0 in 0 W/m2
04:47 57.4 °F 54.9 °F 30 in Calm     91% 0 in 0 W/m2
04:52 57 °F 54.5 °F 30 in Calm     91% 0 in 0 W/m2
04:57 57 °F 54.5 °F 30 in Calm     91% 0 in 0 W/m2
05:02 56.8 °F 54.3 °F 30 in Calm     91% 0 in 0 W/m2
05:07 56.8 °F 54.5 °F 30 in Calm     92% 0 in 0 W/m2
05:12 56.8 °F 54.5 °F 30 in Calm     92% 0 in 0 W/m2
05:17 56.8 °F 54.5 °F 30 in Calm     92% 0 in 0 W/m2
05:22 56.8 °F 54.9 °F 30 in Calm     93% 0 in 0 W/m2
05:27 56.8 °F 54.9 °F 30 in Calm     93% 0 in 0 W/m2
05:32 57 °F 55 °F 30 in Calm     93% 0 in 0 W/m2
05:37 57 °F 55 °F 30 in Calm     93% 0 in 0 W/m2
05:42 56.8 °F 54.9 °F 30 in Calm     93% 0 in 0 W/m2
05:47 56.8 °F 54.9 °F 30 in Calm     93% 0 in 0 W/m2
05:52 56.7 °F 54.7 °F 30 in Calm     93% 0 in 0 W/m2
05:57 56.7 °F 54.7 °F 30 in Calm     93% 0 in 0 W/m2
06:02 56.5 °F 54.5 °F 30 in Calm     93% 0 in 0 W/m2
06:07 56.3 °F 54.3 °F 30 in Calm     93% 0 in 0 W/m2
06:12 56.1 °F 54.1 °F 30 in Calm     93% 0 in 0 W/m2
06:17 55.9 °F 54 °F 30 in Calm     93% 0 in 0 W/m2
06:22 55.9 °F 54 °F 30 in Calm     93% 0 in 0 W/m2
06:27 55.9 °F 54 °F 30 in Calm     93% 0 in 0 W/m2
06:32 55.9 °F 54.3 °F 30 in Calm     94% 0 in 0 W/m2
06:37 55.9 °F 54.3 °F 30 in Calm     94% 0 in 0 W/m2
06:42 55.9 °F 54.3 °F 30 in Calm     94% 0 in 0 W/m2
06:47 56.1 °F 54.5 °F 30 in Calm     94% 0 in 0 W/m2
06:52 56.1 °F 54.5 °F 30 in Calm     94% 0 in 0 W/m2
06:57 56.1 °F 54.5 °F 30 in Calm     94% 0 in 0 W/m2
07:02 55.9 °F 54.3 °F 30 in Calm     94% 0 in 5 W/m2
07:07 55.9 °F 54.3 °F 30.1 in Calm     94% 0 in 7 W/m2
07:13 55.9 °F 54.3 °F 30.1 in Calm     94% 0 in 9 W/m2
07:18 55.9 °F 54.3 °F 30.1 in Calm     94% 0 in 11 W/m2
07:23 56.1 °F 54.5 °F 30.1 in Calm     94% 0 in 14 W/m2
07:28 56.3 °F 54.9 °F 30.1 in Calm     95% 0 in 16 W/m2
07:33 56.5 °F 55 °F 30.1 in Calm     95% 0 in 18 W/m2
07:38 56.5 °F 54.9 °F 30.1 in Calm     94% 0 in 19 W/m2
07:43 56.7 °F 55 °F 30.1 in Calm     94% 0 in 21 W/m2
07:48 56.5 °F 54.9 °F 30.1 in Calm     94% 0 in 23 W/m2
07:53 56.5 °F 54.9 °F 30.1 in Calm     94% 0 in 25 W/m2
07:58 56.5 °F 54.9 °F 30.1 in Calm     94% 0 in 26 W/m2
08:03 56.7 °F 55 °F 30.1 in Calm     94% 0 in 28 W/m2
08:08 56.7 °F 55 °F 30.1 in Calm     94% 0 in 30 W/m2
08:13 56.8 °F 55.4 °F 30.1 in Calm     95% 0 in 39 W/m2
08:18 57.2 °F 55.8 °F 30.1 in Calm     95% 0 in 93 W/m2
08:23 57.6 °F 56.1 °F 30.1 in Calm     95% 0 in 121 W/m2
08:28 57.9 °F 56.5 °F 30.1 in Calm   1 mph 95% 0 in 134 W/m2
08:33 58.5 °F 57 °F 30.1 in Calm     95% 0 in 153 W/m2
08:38 58.8 °F 57 °F 30.1 in Calm     94% 0 in 165 W/m2
08:43 59.4 °F 57.4 °F 30.1 in ESE 0.9 mph 2 mph 93% 0 in 179 W/m2
08:48 59.9 °F 57.6 °F 30.1 in NE 0.9 mph 1 mph 92% 0 in 197 W/m2
08:53 60.4 °F 58.1 °F 30.1 in ENE 0.9 mph 2 mph 92% 0 in 211 W/m2
08:58 60.6 °F 57.7 °F 30.1 in ENE 0.9 mph 2 mph 90% 0 in 221 W/m2
09:03 61 °F 57.7 °F 30.1 in Calm   2 mph 89% 0 in 65 W/m2
09:08 61.3 °F 57.7 °F 30.1 in Calm   3 mph 88% 0 in 49 W/m2
09:13 61.5 °F 57.6 °F 30.1 in Calm   1 mph 87% 0 in 234 W/m2
09:18 61.9 °F 57.9 °F 30.1 in Calm     87% 0 in 274 W/m2
09:23 62.2 °F 58.3 °F 30.1 in Calm     87% 0 in 290 W/m2
09:28 62.4 °F 58.1 °F 30.1 in ESE 0.9 mph 2 mph 86% 0 in 308 W/m2
09:33 63 °F 58.5 °F 30.1 in ENE 0.9 mph 1 mph 85% 0 in 323 W/m2
09:38 63.5 °F 58.6 °F 30.1 in Calm     84% 0 in 336 W/m2
09:43 64 °F 58.8 °F 30.1 in Calm   1 mph 83% 0 in 353 W/m2
09:48 64.6 °F 59 °F 30.1 in East 0.9 mph 2 mph 82% 0 in 366 W/m2
09:53 64.9 °F 59 °F 30.1 in Calm   2 mph 81% 0 in 380 W/m2
09:58 65.7 °F 59.4 °F 30.1 in NW 0.9 mph 2 mph 80% 0 in 392 W/m2
10:03 65.7 °F 59.4 °F 30.1 in Calm   1 mph 80% 0 in 403 W/m2
10:08 65.8 °F 59.5 °F 30.1 in NNE 0.9 mph 2 mph 80% 0 in 415 W/m2
10:13 66.4 °F 59.4 °F 30.1 in Calm   1 mph 78% 0 in 432 W/m2
10:18 66.7 °F 59.7 °F 30.1 in NE 0.9 mph 3 mph 78% 0 in 446 W/m2
10:23 67.5 °F 60.1 °F 30.1 in Calm   2 mph 77% 0 in 461 W/m2
10:28 68 °F 59.7 °F 30.1 in NNE 0.9 mph 4 mph 75% 0 in 487 W/m2
10:33 68.4 °F 60.1 °F 30.1 in NNE 0.9 mph 3 mph 75% 0 in 490 W/m2
10:38 68.5 °F 59.5 °F 30.1 in NNE 0.9 mph 4 mph 73% 0 in 499 W/m2
10:43 68.7 °F 60.1 °F 30.1 in ENE 0.9 mph 2 mph 74% 0 in 510 W/m2
10:48 69.4 °F 60.1 °F 30.1 in Calm   2 mph 72% 0 in 519 W/m2
10:53 70 °F 59.7 °F 30.1 in ENE 0.9 mph 3 mph 70% 0 in 534 W/m2
10:58 70.5 °F 59.9 °F 30.1 in Calm   2 mph 69% 0 in 541 W/m2
11:03 70.9 °F 59.7 °F 30.1 in Calm   1 mph 68% 0 in 554 W/m2
11:08 71.2 °F 60.1 °F 30.1 in Calm   1 mph 68% 0 in 563 W/m2
11:13 71.4 °F 59 °F 30.1 in Calm   4 mph 65% 0 in 573 W/m2
11:18 71.6 °F 59.7 °F 30.1 in East 0.9 mph 4 mph 66% 0 in 580 W/m2
11:23 71.8 °F 59.4 °F 30.1 in ESE 0.9 mph 3 mph 65% 0 in 587 W/m2
11:28 71.8 °F 59.4 °F 30.1 in South 2 mph 4 mph 65% 0 in 594 W/m2
11:33 72.1 °F 60.1 °F 30.1 in East 2 mph 5 mph 66% 0 in 601 W/m2
11:38 72.3 °F 59.5 °F 30.1 in ESE 2 mph 3 mph 64% 0 in 608 W/m2
11:43 72.7 °F 59.7 °F 30.1 in ESE 2 mph 2 mph 64% 0 in 612 W/m2
11:48 73.4 °F 61 °F 30.1 in Calm   1 mph 65% 0 in 628 W/m2
11:53 73.9 °F 60.1 °F 30.1 in NE 0.9 mph 4 mph 62% 0 in 635 W/m2
11:58 74.3 °F 60.4 °F 30.1 in Calm   2 mph 62% 0 in 645 W/m2
12:03 74.5 °F 60.6 °F 30.1 in SSE 0.9 mph 4 mph 62% 0 in 652 W/m2
12:08 75 °F 60.6 °F 30.1 in NNE 2 mph 3 mph 61% 0 in 661 W/m2
12:13 75 °F 59.7 °F 30.1 in East 2 mph 5 mph 59% 0 in 664 W/m2
12:18 75.4 °F 60.4 °F 30.1 in Calm   3 mph 60% 0 in 670 W/m2
12:23 75.7 °F 60.8 °F 30.1 in ESE 2 mph 4 mph 60% 0 in 675 W/m2
12:28 76.3 °F 61 °F 30.1 in NE 0.9 mph 4 mph 59% 0 in 684 W/m2
12:33 76.6 °F 60.8 °F 30.1 in ENE 0.9 mph 5 mph 58% 0 in 687 W/m2
12:38 77.2 °F 60.3 °F 30.1 in ESE 4 mph 5 mph 56% 0 in 691 W/m2
12:43 77.5 °F 60.6 °F 30.1 in East 0.9 mph 2 mph 56% 0 in 694 W/m2
12:48 77.5 °F 61.2 °F 30.1 in East 0.9 mph 3 mph 57% 0 in 698 W/m2
12:53 77.5 °F 60.6 °F 30.1 in NE 6 mph 6 mph 56% 0 in 701 W/m2
12:58 77.4 °F 59.9 °F 30.1 in SE 2.9 mph 4 mph 55% 0 in 703 W/m2
13:03 77.5 °F 60.6 °F 30.1 in East 4 mph 7 mph 56% 0 in 705 W/m2
13:08 77.7 °F 60.3 °F 30.1 in SE 2 mph 6 mph 55% 0 in 714 W/m2
13:13 78.1 °F 61.2 °F 30.1 in ESE 2 mph 7 mph 56% 0 in 710 W/m2
13:18 78.3 °F 61.3 °F 30.1 in NE 2 mph 4 mph 56% 0 in 710 W/m2
13:23 78.4 °F 59.9 °F 30.1 in NE 2.9 mph 3 mph 53% 0 in 715 W/m2
13:28 78.4 °F 59.9 °F 30.1 in East 0.9 mph 2 mph 53% 0 in 717 W/m2
13:33 78.8 °F 60.8 °F 30.1 in ESE 2 mph 4 mph 54% 0 in 726 W/m2
13:38 79 °F 60.4 °F 30.1 in Calm   4 mph 53% 0 in 731 W/m2
13:43 78.8 °F 58.6 °F 30.1 in NE 0.9 mph 8 mph 50% 0 in 584 W/m2
13:48 78.8 °F 59.2 °F 30.1 in ENE 2.9 mph 3 mph 51% 0 in 733 W/m2
13:53 79.2 °F 61.2 °F 30.1 in North 4 mph 4 mph 54% 0 in 747 W/m2
13:58 79.2 °F 59 °F 30.1 in West 2.9 mph 3 mph 50% 0 in 740 W/m2
14:03 79.2 °F 57.7 °F 30.1 in SSE 2 mph 4 mph 48% 0 in 766 W/m2
14:08 79.2 °F 57.2 °F 30.1 in Calm   7 mph 47% 0 in 701 W/m2
14:13 79.3 °F 57.9 °F 30.1 in North 0.9 mph 2 mph 48% 0 in 613 W/m2
14:18 79.5 °F 58.6 °F 30.1 in East 0.9 mph 6 mph 49% 0 in 457 W/m2
14:23 79.5 °F 58.6 °F 30.1 in NE 2 mph 5 mph 49% 0 in 715 W/m2
14:28 79.9 °F 59 °F 30.1 in South 2.9 mph 6 mph 49% 0 in 853 W/m2
14:34 79.9 °F 57.9 °F 30.1 in NW 2 mph 4 mph 47% 0 in 536 W/m2
14:39 79.9 °F 58.5 °F 30.1 in NNW 2.9 mph 5 mph 48% 0 in 345 W/m2
14:44 79.5 °F 58.1 °F 30.1 in NNW 0.9 mph 3 mph 48% 0 in 345 W/m2
14:49 79.7 °F 57 °F 30.1 in Calm   4 mph 46% 0 in 403 W/m2
14:54 79.7 °F 55.9 °F 30.1 in ESE 0.9 mph 2 mph 44% 0 in 446 W/m2
14:59 79.5 °F 58.6 °F 30.1 in Calm   1 mph 49% 0 in 468 W/m2
15:04 79.5 °F 57.6 °F 30.1 in East 4.9 mph 5 mph 47% 0 in 492 W/m2
15:09 79.9 °F 57.2 °F 30.1 in ESE 0.9 mph 3 mph 46% 0 in 587 W/m2
15:14 80.2 °F 58.8 °F 30.1 in ESE 2 mph 10 mph 48% 0 in 568 W/m2
15:19 80.8 °F 57.4 °F 30.1 in East 0.9 mph 6 mph 45% 0 in 508 W/m2
15:24 80.6 °F 57.4 °F 30.1 in SE 2.9 mph 10 mph 45% 0 in 380 W/m2
15:29 80.4 °F 57.7 °F 30.1 in Calm   2 mph 46% 0 in 350 W/m2
15:34 80.2 °F 57.6 °F 30.1 in Calm   6 mph 46% 0 in 343 W/m2
15:39 80.2 °F 58.8 °F 30.1 in NE 2 mph 2 mph 48% 0 in 336 W/m2
15:44 80.1 °F 57.4 °F 30.1 in ESE 2.9 mph 4 mph 46% 0 in 311 W/m2
15:49 79.7 °F 57.7 °F 30.1 in NE 0.9 mph 7 mph 47% 0 in 306 W/m2
15:54 79.5 °F 58.1 °F 30.1 in NW 0.9 mph 3 mph 48% 0 in 350 W/m2
15:59 79.5 °F 57.6 °F 30.1 in NW 2 mph 7 mph 47% 0 in 322 W/m2
16:04 79.5 °F 57.6 °F 30.1 in WNW 2 mph 8 mph 47% 0 in 299 W/m2
16:09 79.3 °F 57.9 °F 30.1 in WNW 2 mph 2 mph 48% 0 in 290 W/m2
16:14 79.3 °F 57.9 °F 30.1 in North 4 mph 4 mph 48% 0 in 297 W/m2
16:19 79.3 °F 57.9 °F 30.1 in WNW 2 mph 5 mph 48% 0 in 380 W/m2
16:24 79.3 °F 58.5 °F 30.1 in West 2 mph 5 mph 49% 0 in 411 W/m2
16:29 79.3 °F 57.9 °F 30.1 in NW 4 mph 4 mph 48% 0 in 373 W/m2
16:34 79.5 °F 58.1 °F 30.1 in NNW 2 mph 4 mph 48% 0 in 487 W/m2
16:39 80.1 °F 58.6 °F 30.1 in NNE 2 mph 5 mph 48% 0 in 357 W/m2
16:44 80.2 °F 57.6 °F 30.1 in West 0.9 mph 7 mph 46% 0 in 515 W/m2
16:49 80.4 °F 57.7 °F 30.1 in ESE 2 mph 4 mph 46% 0 in 330 W/m2
16:54 80.4 °F 58.3 °F 30.1 in ENE 2.9 mph 7 mph 47% 0 in 399 W/m2
16:59 80.4 °F 58.3 °F 30.1 in NE 6 mph 8 mph 47% 0 in 357 W/m2
17:04 80.2 °F 58.1 °F 30.1 in ESE 2 mph 7 mph 47% 0 in 239 W/m2
17:09 79.9 °F 58.5 °F 30.1 in WNW 4 mph 4 mph 48% 0 in 181 W/m2
17:14 79.3 °F 57.9 °F 30.1 in West 4 mph 4 mph 48% 0 in 167 W/m2
17:19 78.8 °F 58.1 °F 30.1 in NW 2.9 mph 4 mph 49% 0 in 160 W/m2
17:24 78.6 °F 57.9 °F 30.1 in Calm   1 mph 49% 0 in 176 W/m2
17:29 78.8 °F 57.4 °F 30.1 in NNW 2.9 mph 4 mph 48% 0 in 239 W/m2
17:34 79.2 °F 58.3 °F 30.1 in NW 0.9 mph 5 mph 49% 0 in 459 W/m2
17:39 79.7 °F 58.3 °F 30.1 in West 2.9 mph 4 mph 48% 0 in 492 W/m2
17:44 80.1 °F 58.1 °F 30.1 in NW 4 mph 5 mph 47% 0 in 445 W/m2
17:49 80.2 °F 58.1 °F 30.1 in North 2.9 mph 3 mph 47% 0 in 404 W/m2
17:54 80.6 °F 59.2 °F 30.1 in NE 2.9 mph 3 mph 48% 0 in 359 W/m2
17:59 81 °F 58.3 °F 30.1 in NE 0.9 mph 5 mph 46% 0 in 334 W/m2
18:04 81 °F 58.8 °F 30.1 in ESE 2.9 mph 7 mph 47% 0 in 311 W/m2
18:09 81 °F 58.3 °F 30.1 in ESE 2.9 mph 3 mph 46% 0 in 297 W/m2
18:14 81 °F 58.8 °F 30.1 in NNW 4 mph 7 mph 47% 0 in 290 W/m2
18:19 81 °F 58.3 °F 30.1 in ENE 0.9 mph 2 mph 46% 0 in 269 W/m2
18:24 81.1 °F 58.5 °F 30.1 in WSW 2.9 mph 4 mph 46% 0 in 253 W/m2
18:29 81.3 °F 59.2 °F 30.1 in North 2 mph 2 mph 47% 0 in 236 W/m2
18:34 81.1 °F 60.8 °F 30.1 in SW 2.9 mph 3 mph 50% 0 in 218 W/m2
18:39 80.8 °F 59.9 °F 30.1 in SW 0.9 mph 2 mph 49% 0 in 200 W/m2
18:44 80.4 °F 60.6 °F 30.1 in SSE 0.9 mph 1 mph 51% 0 in 185 W/m2
18:49 80.1 °F 59.7 °F 30.1 in North 2 mph 2 mph 50% 0 in 171 W/m2
18:54 79.9 °F 59.5 °F 30.1 in SW 0.9 mph 1 mph 50% 0 in 155 W/m2
18:59 79.7 °F 59.9 °F 30.1 in Calm   1 mph 51% 0 in 142 W/m2
19:04 79.3 °F 59.7 °F 30.1 in NNE 0.9 mph 2 mph 51% 0 in 128 W/m2
19:09 79.2 °F 60.6 °F 30.1 in NNW 0.9 mph 3 mph 53% 0 in 113 W/m2
19:14 78.6 °F 61.5 °F 30.1 in SSE 2 mph 2 mph 56% 0 in 76 W/m2
19:19 77.9 °F 61.9 °F 30.1 in Calm   2 mph 58% 0 in 81 W/m2
19:24 77.2 °F 62.2 °F 30.1 in Calm   1 mph 60% 0 in 40 W/m2
19:29 76.5 °F 61.5 °F 30.1 in SSE 0.9 mph 1 mph 60% 0 in 25 W/m2
19:34 75.6 °F 61.2 °F 30.1 in SSE 0.9 mph 2 mph 61% 0 in 21 W/m2
19:39 74.8 °F 61.3 °F 30.1 in SSE 0.9 mph 2 mph 63% 0 in 19 W/m2
19:44 74.3 °F 61.3 °F 30.1 in SSE 2 mph 2 mph 64% 0 in 16 W/m2
19:49 73.8 °F 61.3 °F 30.1 in Calm   2 mph 65% 0 in 16 W/m2
19:54 73.2 °F 61.2 °F 30.1 in SSE 0.9 mph 2 mph 66% 0 in 14 W/m2
19:59 72.9 °F 61.3 °F 30.1 in SSE 0.9 mph 1 mph 67% 0 in 12 W/m2
20:04 72.3 °F 60.8 °F 30.1 in Calm   2 mph 67% 0 in 9 W/m2
20:09 71.8 °F 60.6 °F 30.1 in SSE 0.9 mph 1 mph 68% 0 in 5 W/m2
20:14 71.1 °F 60.4 °F 30.1 in South 0.9 mph 2 mph 69% 0 in 0 W/m2
20:19 70.7 °F 60.4 °F 30.1 in Calm   2 mph 70% 0 in 0 W/m2
20:24 70.3 °F 60.1 °F 30.1 in South 0.9 mph 2 mph 70% 0 in 0 W/m2
20:29 70 °F 60.1 °F 30.1 in Calm     71% 0 in 0 W/m2
20:34 69.6 °F 59.7 °F 30.1 in Calm   2 mph 71% 0 in 0 W/m2
20:39 69.3 °F 59.5 °F 30.1 in Calm   1 mph 71% 0 in 0 W/m2
20:44 69.1 °F 59.7 °F 30.1 in Calm   2 mph 72% 0 in 0 W/m2
20:49 68.7 °F 59.7 °F 30.1 in South 0.9 mph 1 mph 73% 0 in 0 W/m2
20:54 68.4 °F 59.4 °F 30.1 in Calm     73% 0 in 0 W/m2
20:59 68.2 °F 59.5 °F 30.1 in Calm     74% 0 in 0 W/m2
21:04 68 °F 59.4 °F 30.1 in Calm     74% 0 in 0 W/m2
21:09 67.6 °F 59 °F 30.1 in Calm     74% 0 in 0 W/m2
21:14 67.5 °F 59.2 °F 30.1 in Calm     75% 0 in 0 W/m2
21:19 67.3 °F 59 °F 30.1 in Calm   2 mph 75% 0 in 0 W/m2
21:24 66.9 °F 58.8 °F 30.1 in South 0.9 mph 1 mph 75% 0 in 0 W/m2
21:29 66.7 °F 59 °F 30.1 in Calm     76% 0 in 0 W/m2
21:34 66.6 °F 58.8 °F 30.1 in Calm   1 mph 76% 0 in 0 W/m2
21:39 66.4 °F 58.6 °F 30.1 in Calm     76% 0 in 0 W/m2
21:44 66 °F 58.6 °F 30.1 in Calm   1 mph 77% 0 in 0 W/m2
21:49 65.8 °F 58.5 °F 30.1 in Calm   2 mph 77% 0 in 0 W/m2
21:54 65.8 °F 58.5 °F 30.1 in Calm   1 mph 77% 0 in 0 W/m2
21:59 65.7 °F 58.3 °F 30.1 in Calm   1 mph 77% 0 in 0 W/m2
22:04 65.7 °F 58.3 °F 30.1 in Calm     77% 0 in 0 W/m2
22:09 65.5 °F 58.1 °F 30.1 in Calm   1 mph 77% 0 in 0 W/m2
22:14 65.1 °F 58.1 °F 30.1 in Calm   1 mph 78% 0 in 0 W/m2
22:19 64.9 °F 57.9 °F 30.1 in Calm     78% 0 in 0 W/m2
22:24 64.8 °F 58.1 °F 30.1 in Calm   1 mph 79% 0 in 0 W/m2
22:29 64.6 °F 57.9 °F 30.1 in Calm   2 mph 79% 0 in 0 W/m2
22:34 64.4 °F 58.1 °F 30.1 in Calm     80% 0 in 0 W/m2
22:39 64.2 °F 57.9 °F 30.1 in Calm   2 mph 80% 0 in 0 W/m2
22:44 64 °F 57.7 °F 30.1 in Calm     80% 0 in 0 W/m2
22:49 64 °F 57.7 °F 30.1 in Calm   1 mph 80% 0 in 0 W/m2
22:54 63.9 °F 57.6 °F 30.1 in Calm     80% 0 in 0 W/m2
22:59 63.7 °F 57.7 °F 30.1 in Calm     81% 0 in 0 W/m2
23:04 63.5 °F 57.6 °F 30.1 in South 0.9 mph 2 mph 81% 0 in 0 W/m2
23:10 63.3 °F 57.7 °F 30.1 in Calm   2 mph 82% 0 in 0 W/m2
23:15 63.1 °F 57.6 °F 30.1 in Calm     82% 0 in 0 W/m2
23:20 63.1 °F 57.6 °F 30.1 in Calm   1 mph 82% 0 in 0 W/m2
23:25 63 °F 57.4 °F 30.1 in South 0.9 mph 1 mph 82% 0 in 0 W/m2
23:30 63 °F 57.4 °F 30.1 in Calm     82% 0 in 0 W/m2
23:35 62.8 °F 57.6 °F 30.1 in Calm     83% 0 in 0 W/m2
23:40 62.6 °F 57.4 °F 30.1 in Calm     83% 0 in 0 W/m2
23:45 62.4 °F 57.2 °F 30.1 in Calm   2 mph 83% 0 in 0 W/m2
23:50 62.2 °F 57 °F 30.1 in Calm   2 mph 83% 0 in 0 W/m2
23:55 62.2 °F 57 °F 30.1 in South 0.9 mph 1 mph 83% 0 in 0 W/m2
Juneau County Weather
Compliments of Weather Underground - 2 mb